M/y Paradigm — V7TE6 — position and weather

sailwx.info

Track history (hours):
 
Tides and Currents Weather Stations Pressure Air Temp Water Temp Dewpoint Dewpoint Depression Visibility Wind Speed Wind Dir Waves Ship Positions

M/y Paradigm

Last reported at 2014-Aug-02 02:19 UTC. Time now 2014-Aug-02 02:45 UTC.
Position N 26°07' W 080°06'.

Length 35 m.

Type: Pleasure craft. MMSI: 538070694.

Date/timePositionNaut miles runAvg speedWind from/ knotsBaromVisibWave heightAir tempDewpointWater temp
2014-Aug-02 02:19N 26°07' W 080°06'0 0.0
2014-Aug-02 01:25N 26°07' W 080°06'0 0.0
2014-Aug-02 00:25N 26°07' W 080°06'2 2.1
2014-Aug-01 23:30N 26°05' W 080°05'3 2.5
2014-Aug-01 22:23N 26°02' W 080°06'0 0.0
2014-Aug-01 21:26N 26°02' W 080°06'3 3.2
2014-Aug-01 20:33N 26°05' W 080°05'2 1.7
2014-Aug-01 19:27N 26°07' W 080°06'0 0.0
2014-Aug-01 18:30N 26°07' W 080°06'0 0.0
2014-Aug-01 17:30N 26°07' W 080°06'0 0.0
2014-Aug-01 16:30N 26°07' W 080°06'0 0.0
2014-Aug-01 15:33N 26°07' W 080°06'0 0.0
2014-Aug-01 14:33N 26°07' W 080°06'0 0.0
2014-Aug-01 13:33N 26°07' W 080°06'0 0.0
2014-Aug-01 12:33N 26°07' W 080°06'0 0.0
2014-Aug-01 11:26N 26°07' W 080°06'0 0.0
2014-Aug-01 10:26N 26°07' W 080°06'0 0.0
2014-Aug-01 09:26N 26°07' W 080°06'0 0.0
2014-Aug-01 08:29N 26°07' W 080°06'0 0.0
2014-Aug-01 07:29N 26°07' W 080°06'0 0.0
2014-Aug-01 06:32N 26°07' W 080°06'0 0.0
2014-Aug-01 05:32N 26°07' W 080°06'0 0.0
2014-Aug-01 04:33N 26°07' W 080°06'0 0.0
2014-Aug-01 03:29N 26°07' W 080°06'0 0.0
2014-Aug-01 02:32N 26°07' W 080°06'0 0.0
2014-Aug-01 01:32N 26°07' W 080°06'0 0.0
2014-Aug-01 00:32N 26°07' W 080°06'0 0.0
2014-Jul-31 23:33N 26°07' W 080°06'0 0.0
2014-Jul-31 22:28N 26°07' W 080°06'0 0.0
2014-Jul-31 21:28N 26°07' W 080°06'0 0.0
2014-Jul-31 20:31N 26°07' W 080°06'0 0.0
2014-Jul-31 19:31N 26°07' W 080°06'0 0.0
2014-Jul-31 18:31N 26°07' W 080°06'0 0.0
2014-Jul-31 17:31N 26°07' W 080°06'0 0.0
2014-Jul-31 16:31N 26°07' W 080°06'0 0.0
2014-Jul-31 15:31N 26°07' W 080°06'0 0.0
2014-Jul-31 14:31N 26°07' W 080°06'0 0.0
2014-Jul-31 13:25N 26°07' W 080°06'0 0.0
2014-Jul-31 12:25N 26°07' W 080°06'0 0.0
2014-Jul-31 11:25N 26°07' W 080°06'0 0.0
2014-Jul-31 10:31N 26°07' W 080°06'0 0.0
2014-Jul-31 09:25N 26°07' W 080°06'0 0.0
2014-Jul-31 08:33N 26°07' W 080°06'0 0.0
2014-Jul-31 07:25N 26°07' W 080°06'0 0.0
2014-Jul-31 06:28N 26°07' W 080°06'0 0.0
2014-Jul-31 05:28N 26°07' W 080°06'0 0.0
2014-Jul-31 04:31N 26°07' W 080°06'0 0.0
2014-Jul-31 03:31N 26°07' W 080°06'0 0.0
2014-Jul-31 02:33N 26°07' W 080°06'0 0.0
2014-Jul-31 01:33N 26°07' W 080°06'0 0.0
2014-Jul-31 00:33N 26°07' W 080°06'0 0.0
2014-Jul-30 23:33N 26°07' W 080°06'0 0.0
2014-Jul-30 22:21N 26°07' W 080°06'0 0.0
2014-Jul-30 21:33N 26°07' W 080°06'0 0.0
2014-Jul-30 20:24N 26°07' W 080°06'0 0.0
2014-Jul-30 19:32N 26°07' W 080°06'0 0.0
2014-Jul-30 18:32N 26°07' W 080°06'0 0.0
2014-Jul-30 17:32N 26°07' W 080°06'0 0.0
2014-Jul-30 16:32N 26°07' W 080°06'0 0.0
2014-Jul-30 15:32N 26°07' W 080°06'0 0.0
2014-Jul-30 14:23N 26°07' W 080°06'0 0.0
2014-Jul-30 13:26N 26°07' W 080°06'0 0.0
2014-Jul-30 12:32N 26°07' W 080°06'0 0.0
2014-Jul-30 11:27N 26°07' W 080°06'0 0.0
2014-Jul-30 10:33N 26°07' W 080°06'0 0.0
2014-Jul-30 09:33N 26°07' W 080°06'0 0.0
2014-Jul-30 08:33N 26°07' W 080°06'0 0.0
2014-Jul-30 07:33N 26°07' W 080°06'0 0.0
2014-Jul-30 06:33N 26°07' W 080°06'0 0.0
2014-Jul-30 05:33N 26°07' W 080°06'0 0.0
2014-Jul-30 04:33N 26°07' W 080°06'0 0.0
2014-Jul-30 03:24N 26°07' W 080°06'0 0.0
2014-Jul-30 02:24N 26°07' W 080°06'0 0.0
2014-Jul-30 01:27N 26°07' W 080°06'0 0.0
2014-Jul-30 00:27N 26°07' W 080°06'0 0.0
2014-Jul-29 23:30N 26°07' W 080°06'0 0.0
2014-Jul-29 22:30N 26°07' W 080°06'0 0.0
2014-Jul-29 21:33N 26°07' W 080°06'0 0.0
2014-Jul-29 20:30N 26°07' W 080°06'0 0.0
2014-Jul-29 19:32N 26°07' W 080°06'0 0.0
2014-Jul-29 18:32N 26°07' W 080°06'0 0.0
2014-Jul-29 17:32N 26°07' W 080°06'0 0.0
2014-Jul-29 16:32N 26°07' W 080°06'0 0.0
2014-Jul-29 15:32N 26°07' W 080°06'0 0.0
2014-Jul-29 14:32N 26°07' W 080°06'0 0.0
2014-Jul-29 13:23N 26°07' W 080°06'0 0.0
2014-Jul-29 12:27N 26°07' W 080°07'0 0.0
2014-Jul-29 11:27N 26°07' W 080°06'0 0.0
2014-Jul-29 10:30N 26°07' W 080°06'0 0.0
2014-Jul-29 09:30N 26°07' W 080°06'0 0.0
2014-Jul-29 08:31N 26°07' W 080°06'0 0.0
2014-Jul-29 07:29N 26°07' W 080°06'0 0.0
2014-Jul-29 06:29N 26°07' W 080°06'0 0.0
2014-Jul-29 05:32N 26°07' W 080°06'0 0.0
2014-Jul-29 04:32N 26°07' W 080°06'0 0.0
2014-Jul-29 03:32N 26°07' W 080°06'0 0.0
2014-Jul-29 02:20N 26°07' W 080°06'0 0.0
2014-Jul-29 01:31N 26°07' W 080°06'0 0.0
2014-Jul-29 00:31N 26°07' W 080°06'0 0.0
2014-Jul-28 23:31N 26°07' W 080°06'0 0.0
2014-Jul-28 22:25N 26°07' W 080°06'0 0.0
2014-Jul-28 21:28N 26°07' W 080°06'0 0.0
2014-Jul-28 20:28N 26°07' W 080°06'0 0.0
2014-Jul-28 19:24N 26°07' W 080°06'0 0.0
2014-Jul-28 18:27N 26°07' W 080°06'0 0.0
2014-Jul-28 17:27N 26°07' W 080°06'0 0.0
2014-Jul-28 16:27N 26°07' W 080°06'0 0.0
2014-Jul-28 15:30N 26°07' W 080°06'0 0.0
2014-Jul-28 14:30N 26°07' W 080°06'0 0.0
2014-Jul-28 13:30N 26°07' W 080°06'0 0.0
2014-Jul-28 12:33N 26°07' W 080°06'0 0.0
2014-Jul-28 11:33N 26°07' W 080°06'0 0.0
2014-Jul-28 10:33N 26°07' W 080°06'0 0.0
2014-Jul-28 09:33N 26°07' W 080°06'0 0.0
2014-Jul-28 08:21N 26°07' W 080°06'0 0.0
2014-Jul-28 07:24N 26°07' W 080°06'0 0.0
2014-Jul-28 06:33N 26°07' W 080°06'0 0.0
2014-Jul-28 05:24N 26°07' W 080°06'0 0.0
2014-Jul-28 04:27N 26°07' W 080°06'0 0.0
2014-Jul-28 03:27N 26°07' W 080°06'0 0.0
2014-Jul-28 02:27N 26°07' W 080°06'0 0.0
2014-Jul-28 01:30N 26°07' W 080°06'0 0.0
2014-Jul-28 00:30N 26°07' W 080°06'0 0.0
2014-Jul-27 23:30N 26°07' W 080°06'0 0.0
2014-Jul-27 22:33N 26°07' W 080°06'0 0.0
2014-Jul-27 21:33N 26°07' W 080°06'0 0.0
2014-Jul-27 20:33N 26°07' W 080°06'0 0.0
2014-Jul-27 19:33N 26°07' W 080°06'0 0.0
2014-Jul-27 18:33N 26°07' W 080°06'0 0.0
2014-Jul-27 17:33N 26°07' W 080°06'0 0.0
2014-Jul-27 16:24N 26°07' W 080°06'0 0.0
2014-Jul-27 15:24N 26°07' W 080°06'0 0.0
2014-Jul-27 14:27N 26°07' W 080°06'0 0.0
2014-Jul-27 13:27N 26°07' W 080°06'0 0.0
2014-Jul-27 12:27N 26°07' W 080°07'0 0.0
2014-Jul-27 11:27N 26°07' W 080°06'0 0.0
2014-Jul-27 10:30N 26°07' W 080°06'0 0.0
2014-Jul-27 09:31N 26°07' W 080°06'0 0.0
2014-Jul-27 08:31N 26°07' W 080°06'0 0.0
2014-Jul-27 07:31N 26°07' W 080°06'0 0.0
2014-Jul-27 06:22N 26°07' W 080°06'0 0.0
2014-Jul-27 05:25N 26°07' W 080°07'0 0.0
2014-Jul-27 04:24N 26°07' W 080°06'0 0.0
2014-Jul-27 03:24N 26°07' W 080°06'0 0.0
2014-Jul-27 02:27N 26°07' W 080°06'0 0.0
2014-Jul-27 01:27N 26°07' W 080°06'0 0.0
2014-Jul-27 00:30N 26°07' W 080°06'0 0.0
2014-Jul-26 23:32N 26°07' W 080°06'0 0.0
2014-Jul-26 22:32N 26°07' W 080°06'0 0.0
2014-Jul-26 21:32N 26°07' W 080°06'0 0.0
2014-Jul-26 20:32N 26°07' W 080°06'0 0.0
2014-Jul-26 19:23N 26°07' W 080°06'0 0.0
2014-Jul-26 18:26N 26°07' W 080°06'0 0.0
2014-Jul-26 17:26N 26°07' W 080°06'0 0.0
2014-Jul-26 16:26N 26°07' W 080°06'0 0.0
2014-Jul-26 15:29N 26°07' W 080°06'0 0.0
2014-Jul-26 14:29N 26°07' W 080°06'0 0.0
2014-Jul-26 13:29N 26°07' W 080°06'0 0.0
2014-Jul-26 12:32N 26°07' W 080°06'0 0.0
2014-Jul-26 11:32N 26°07' W 080°06'0 0.0
2014-Jul-26 10:33N 26°07' W 080°06'0 0.0
2014-Jul-26 09:29N 26°07' W 080°06'0 0.0
2014-Jul-26 08:32N 26°07' W 080°06'0 0.0
2014-Jul-26 07:32N 26°07' W 080°06'0 0.0
2014-Jul-26 06:32N 26°07' W 080°06'0 0.0
2014-Jul-26 05:20N 26°07' W 080°06'0 0.0
2014-Jul-26 04:26N 26°07' W 080°06'0 0.0
2014-Jul-26 03:26N 26°07' W 080°06'0 0.0
2014-Jul-26 02:26N 26°07' W 080°06'0 0.0
2014-Jul-26 01:29N 26°07' W 080°06'0 0.0
2014-Jul-26 00:29N 26°07' W 080°06'0 0.0
2014-Jul-25 23:29N 26°07' W 080°06'0 0.0
2014-Jul-25 22:32N 26°07' W 080°06'0 0.0
2014-Jul-25 21:32N 26°07' W 080°06'0 0.0
2014-Jul-25 20:32N 26°07' W 080°06'0 0.0
2014-Jul-25 19:32N 26°07' W 080°06'0 0.0
2014-Jul-25 18:32N 26°07' W 080°06'0 0.0
2014-Jul-25 17:32N 26°07' W 080°06'0 0.0
2014-Jul-25 16:32N 26°07' W 080°06'0 0.0
2014-Jul-25 15:23N 26°07' W 080°06'0 0.0
2014-Jul-25 14:26N 26°07' W 080°06'0 0.0
2014-Jul-25 13:26N 26°07' W 080°06'0 0.0
2014-Jul-25 12:29N 26°07' W 080°06'0 0.0
2014-Jul-25 11:29N 26°07' W 080°06'0 0.0
2014-Jul-25 10:29N 26°07' W 080°06'0 0.0
2014-Jul-25 09:29N 26°07' W 080°06'0 0.0
2014-Jul-25 08:32N 26°07' W 080°06'0 0.0
2014-Jul-25 07:32N 26°07' W 080°06'0 0.0
2014-Jul-25 06:32N 26°07' W 080°06'0 0.0
2014-Jul-25 05:32N 26°07' W 080°06'0 0.0
2014-Jul-25 04:32N 26°07' W 080°06'0 0.0
2014-Jul-25 03:32N 26°07' W 080°06'0 0.0
2014-Jul-25 02:20N 26°07' W 080°06'0 0.0
2014-Jul-25 01:23N 26°07' W 080°06'0 0.0
2014-Jul-25 00:26N 26°07' W 080°06'0 0.0
2014-Jul-24 23:26N 26°07' W 080°06'0 0.0
2014-Jul-24 22:29N 26°07' W 080°06'0 0.0
2014-Jul-24 21:29N 26°07' W 080°06'0 0.0
2014-Jul-24 20:29N 26°07' W 080°06'0 0.0
2014-Jul-24 19:32N 26°07' W 080°06'0 0.0
2014-Jul-24 18:32N 26°07' W 080°06'0 0.0
2014-Jul-24 17:32N 26°07' W 080°06'0 0.0
2014-Jul-24 16:32N 26°07' W 080°06'0 0.0
2014-Jul-24 15:32N 26°07' W 080°06'0 0.0
2014-Jul-24 14:32N 26°07' W 080°06'0 0.0
2014-Jul-24 13:32N 26°07' W 080°06'0 0.0
2014-Jul-24 12:23N 26°07' W 080°06'0 0.0
2014-Jul-24 11:23N 26°07' W 080°06'0 0.0
2014-Jul-24 10:23N 26°07' W 080°06'0 0.0
2014-Jul-24 09:26N 26°07' W 080°06'0 0.0
2014-Jul-24 08:29N 26°07' W 080°06'0 0.0
2014-Jul-24 07:29N 26°07' W 080°06'0 0.0
2014-Jul-24 06:29N 26°07' W 080°06'0 0.0
2014-Jul-24 05:29N 26°07' W 080°06'0 0.0
2014-Jul-24 04:29N 26°07' W 080°06'0 0.0
2014-Jul-24 03:29N 26°07' W 080°06'0 0.0
2014-Jul-24 02:29N 26°07' W 080°06'0 0.0
2014-Jul-24 01:17N 26°07' W 080°06'0 0.0
2014-Jul-24 00:23N 26°07' W 080°06'0 0.0
2014-Jul-23 23:23N 26°07' W 080°06'0 0.0
2014-Jul-23 22:23N 26°07' W 080°06'0 0.0
2014-Jul-23 21:23N 26°07' W 080°06'0 0.0
2014-Jul-23 20:26N 26°07' W 080°06'0 0.0
2014-Jul-23 19:26N 26°07' W 080°06'0 0.0
2014-Jul-23 18:29N 26°07' W 080°06'0 0.0
2014-Jul-23 17:29N 26°07' W 080°06'1 1.1
2014-Jul-23 16:33N 26°06' W 080°07'1 0.5
2014-Jul-23 15:33N 26°06' W 080°07'1 1.3
2014-Jul-23 14:33N 26°07' W 080°06'0 0.0
2014-Jul-23 13:24N 26°07' W 080°06'0 0.0
2014-Jul-23 12:29N 26°07' W 080°06'135146.4
2014-Jul-23 11:33N 27°27' W 078°04'13565.2
2014-Jul-23 09:29N 26°07' W 080°06'0 0.0
2014-Jul-23 08:32N 26°07' W 080°06'0 0.0
2014-Jul-23 07:32N 26°07' W 080°06'0 0.0
2014-Jul-23 06:32N 26°07' W 080°06'0 0.0
2014-Jul-23 05:32N 26°07' W 080°06'0 0.0
2014-Jul-23 04:32N 26°07' W 080°06'0 0.0
2014-Jul-23 03:23N 26°07' W 080°06'0 0.0
2014-Jul-23 02:20N 26°07' W 080°06'  
Track history (hours):
 
Tides and Currents Weather Stations Pressure Air Temp Water Temp Dewpoint Dewpoint Depression Visibility Wind Speed Wind Dir Waves Ship Positions

M/y Paradigm

Last reported at 2014-Aug-02 02:19 UTC. Time now 2014-Aug-02 02:45 UTC.
Position N 26°07' W 080°06'.

Length 35 m.

Type: Pleasure craft. MMSI: 538070694.

Date/timePositionNaut miles runAvg speedWind from/ knotsBaromVisibWave heightAir tempDewpointWater temp
2014-Aug-02 02:19N 26°07' W 080°06'0 0.0
2014-Aug-02 01:25N 26°07' W 080°06'0 0.0
2014-Aug-02 00:25N 26°07' W 080°06'2 2.1
2014-Aug-01 23:30N 26°05' W 080°05'3 2.5
2014-Aug-01 22:23N 26°02' W 080°06'0 0.0
2014-Aug-01 21:26N 26°02' W 080°06'3 3.2
2014-Aug-01 20:33N 26°05' W 080°05'2 1.7
2014-Aug-01 19:27N 26°07' W 080°06'0 0.0
2014-Aug-01 18:30N 26°07' W 080°06'0 0.0
2014-Aug-01 17:30N 26°07' W 080°06'0 0.0
2014-Aug-01 16:30N 26°07' W 080°06'0 0.0
2014-Aug-01 15:33N 26°07' W 080°06'0 0.0
2014-Aug-01 14:33N 26°07' W 080°06'0 0.0
2014-Aug-01 13:33N 26°07' W 080°06'0 0.0
2014-Aug-01 12:33N 26°07' W 080°06'0 0.0
2014-Aug-01 11:26N 26°07' W 080°06'0 0.0
2014-Aug-01 10:26N 26°07' W 080°06'0 0.0
2014-Aug-01 09:26N 26°07' W 080°06'0 0.0
2014-Aug-01 08:29N 26°07' W 080°06'0 0.0
2014-Aug-01 07:29N 26°07' W 080°06'0 0.0
2014-Aug-01 06:32N 26°07' W 080°06'0 0.0
2014-Aug-01 05:32N 26°07' W 080°06'0 0.0
2014-Aug-01 04:33N 26°07' W 080°06'0 0.0
2014-Aug-01 03:29N 26°07' W 080°06'0 0.0
2014-Aug-01 02:32N 26°07' W 080°06'0 0.0
2014-Aug-01 01:32N 26°07' W 080°06'0 0.0
2014-Aug-01 00:32N 26°07' W 080°06'0 0.0
2014-Jul-31 23:33N 26°07' W 080°06'0 0.0
2014-Jul-31 22:28N 26°07' W 080°06'0 0.0
2014-Jul-31 21:28N 26°07' W 080°06'0 0.0
2014-Jul-31 20:31N 26°07' W 080°06'0 0.0
2014-Jul-31 19:31N 26°07' W 080°06'0 0.0
2014-Jul-31 18:31N 26°07' W 080°06'0 0.0
2014-Jul-31 17:31N 26°07' W 080°06'0 0.0
2014-Jul-31 16:31N 26°07' W 080°06'0 0.0
2014-Jul-31 15:31N 26°07' W 080°06'0 0.0
2014-Jul-31 14:31N 26°07' W 080°06'0 0.0
2014-Jul-31 13:25N 26°07' W 080°06'0 0.0
2014-Jul-31 12:25N 26°07' W 080°06'0 0.0
2014-Jul-31 11:25N 26°07' W 080°06'0 0.0
2014-Jul-31 10:31N 26°07' W 080°06'0 0.0
2014-Jul-31 09:25N 26°07' W 080°06'0 0.0
2014-Jul-31 08:33N 26°07' W 080°06'0 0.0
2014-Jul-31 07:25N 26°07' W 080°06'0 0.0
2014-Jul-31 06:28N 26°07' W 080°06'0 0.0
2014-Jul-31 05:28N 26°07' W 080°06'0 0.0
2014-Jul-31 04:31N 26°07' W 080°06'0 0.0
2014-Jul-31 03:31N 26°07' W 080°06'0 0.0
2014-Jul-31 02:33N 26°07' W 080°06'0 0.0
2014-Jul-31 01:33N 26°07' W 080°06'0 0.0
2014-Jul-31 00:33N 26°07' W 080°06'0 0.0
2014-Jul-30 23:33N 26°07' W 080°06'0 0.0
2014-Jul-30 22:21N 26°07' W 080°06'0 0.0
2014-Jul-30 21:33N 26°07' W 080°06'0 0.0
2014-Jul-30 20:24N 26°07' W 080°06'0 0.0
2014-Jul-30 19:32N 26°07' W 080°06'0 0.0
2014-Jul-30 18:32N 26°07' W 080°06'0 0.0
2014-Jul-30 17:32N 26°07' W 080°06'0 0.0
2014-Jul-30 16:32N 26°07' W 080°06'0 0.0
2014-Jul-30 15:32N 26°07' W 080°06'0 0.0
2014-Jul-30 14:23N 26°07' W 080°06'0 0.0
2014-Jul-30 13:26N 26°07' W 080°06'0 0.0
2014-Jul-30 12:32N 26°07' W 080°06'0 0.0
2014-Jul-30 11:27N 26°07' W 080°06'0 0.0
2014-Jul-30 10:33N 26°07' W 080°06'0 0.0
2014-Jul-30 09:33N 26°07' W 080°06'0 0.0
2014-Jul-30 08:33N 26°07' W 080°06'0 0.0
2014-Jul-30 07:33N 26°07' W 080°06'0 0.0
2014-Jul-30 06:33N 26°07' W 080°06'0 0.0
2014-Jul-30 05:33N 26°07' W 080°06'0 0.0
2014-Jul-30 04:33N 26°07' W 080°06'0 0.0
2014-Jul-30 03:24N 26°07' W 080°06'0 0.0
2014-Jul-30 02:24N 26°07' W 080°06'0 0.0
2014-Jul-30 01:27N 26°07' W 080°06'0 0.0
2014-Jul-30 00:27N 26°07' W 080°06'0 0.0
2014-Jul-29 23:30N 26°07' W 080°06'0 0.0
2014-Jul-29 22:30N 26°07' W 080°06'0 0.0
2014-Jul-29 21:33N 26°07' W 080°06'0 0.0
2014-Jul-29 20:30N 26°07' W 080°06'0 0.0
2014-Jul-29 19:32N 26°07' W 080°06'0 0.0
2014-Jul-29 18:32N 26°07' W 080°06'0 0.0
2014-Jul-29 17:32N 26°07' W 080°06'0 0.0
2014-Jul-29 16:32N 26°07' W 080°06'0 0.0
2014-Jul-29 15:32N 26°07' W 080°06'0 0.0
2014-Jul-29 14:32N 26°07' W 080°06'0 0.0
2014-Jul-29 13:23N 26°07' W 080°06'0 0.0
2014-Jul-29 12:27N 26°07' W 080°07'0 0.0
2014-Jul-29 11:27N 26°07' W 080°06'0 0.0
2014-Jul-29 10:30N 26°07' W 080°06'0 0.0
2014-Jul-29 09:30N 26°07' W 080°06'0 0.0
2014-Jul-29 08:31N 26°07' W 080°06'0 0.0
2014-Jul-29 07:29N 26°07' W 080°06'0 0.0
2014-Jul-29 06:29N 26°07' W 080°06'0 0.0
2014-Jul-29 05:32N 26°07' W 080°06'0 0.0
2014-Jul-29 04:32N 26°07' W 080°06'0 0.0
2014-Jul-29 03:32N 26°07' W 080°06'0 0.0
2014-Jul-29 02:20N 26°07' W 080°06'0 0.0
2014-Jul-29 01:31N 26°07' W 080°06'0 0.0
2014-Jul-29 00:31N 26°07' W 080°06'0 0.0
2014-Jul-28 23:31N 26°07' W 080°06'0 0.0
2014-Jul-28 22:25N 26°07' W 080°06'0 0.0
2014-Jul-28 21:28N 26°07' W 080°06'0 0.0
2014-Jul-28 20:28N 26°07' W 080°06'0 0.0
2014-Jul-28 19:24N 26°07' W 080°06'0 0.0
2014-Jul-28 18:27N 26°07' W 080°06'0 0.0
2014-Jul-28 17:27N 26°07' W 080°06'0 0.0
2014-Jul-28 16:27N 26°07' W 080°06'0 0.0
2014-Jul-28 15:30N 26°07' W 080°06'0 0.0
2014-Jul-28 14:30N 26°07' W 080°06'0 0.0
2014-Jul-28 13:30N 26°07' W 080°06'0 0.0
2014-Jul-28 12:33N 26°07' W 080°06'0 0.0
2014-Jul-28 11:33N 26°07' W 080°06'0 0.0
2014-Jul-28 10:33N 26°07' W 080°06'0 0.0
2014-Jul-28 09:33N 26°07' W 080°06'0 0.0
2014-Jul-28 08:21N 26°07' W 080°06'0 0.0
2014-Jul-28 07:24N 26°07' W 080°06'0 0.0
2014-Jul-28 06:33N 26°07' W 080°06'0 0.0
2014-Jul-28 05:24N 26°07' W 080°06'0 0.0
2014-Jul-28 04:27N 26°07' W 080°06'0 0.0
2014-Jul-28 03:27N 26°07' W 080°06'0 0.0
2014-Jul-28 02:27N 26°07' W 080°06'0 0.0
2014-Jul-28 01:30N 26°07' W 080°06'0 0.0
2014-Jul-28 00:30N 26°07' W 080°06'0 0.0
2014-Jul-27 23:30N 26°07' W 080°06'0 0.0
2014-Jul-27 22:33N 26°07' W 080°06'0 0.0
2014-Jul-27 21:33N 26°07' W 080°06'0 0.0
2014-Jul-27 20:33N 26°07' W 080°06'0 0.0
2014-Jul-27 19:33N 26°07' W 080°06'0 0.0
2014-Jul-27 18:33N 26°07' W 080°06'0 0.0
2014-Jul-27 17:33N 26°07' W 080°06'0 0.0
2014-Jul-27 16:24N 26°07' W 080°06'0 0.0
2014-Jul-27 15:24N 26°07' W 080°06'0 0.0
2014-Jul-27 14:27N 26°07' W 080°06'0 0.0
2014-Jul-27 13:27N 26°07' W 080°06'0 0.0
2014-Jul-27 12:27N 26°07' W 080°07'0 0.0
2014-Jul-27 11:27N 26°07' W 080°06'0 0.0
2014-Jul-27 10:30N 26°07' W 080°06'0 0.0
2014-Jul-27 09:31N 26°07' W 080°06'0 0.0
2014-Jul-27 08:31N 26°07' W 080°06'0 0.0
2014-Jul-27 07:31N 26°07' W 080°06'0 0.0
2014-Jul-27 06:22N 26°07' W 080°06'0 0.0
2014-Jul-27 05:25N 26°07' W 080°07'0 0.0
2014-Jul-27 04:24N 26°07' W 080°06'0 0.0
2014-Jul-27 03:24N 26°07' W 080°06'0 0.0
2014-Jul-27 02:27N 26°07' W 080°06'0 0.0
2014-Jul-27 01:27N 26°07' W 080°06'0 0.0
2014-Jul-27 00:30N 26°07' W 080°06'0 0.0
2014-Jul-26 23:32N 26°07' W 080°06'0 0.0
2014-Jul-26 22:32N 26°07' W 080°06'0 0.0
2014-Jul-26 21:32N 26°07' W 080°06'0 0.0
2014-Jul-26 20:32N 26°07' W 080°06'0 0.0
2014-Jul-26 19:23N 26°07' W 080°06'0 0.0
2014-Jul-26 18:26N 26°07' W 080°06'0 0.0
2014-Jul-26 17:26N 26°07' W 080°06'0 0.0
2014-Jul-26 16:26N 26°07' W 080°06'0 0.0
2014-Jul-26 15:29N 26°07' W 080°06'0 0.0
2014-Jul-26 14:29N 26°07' W 080°06'0 0.0
2014-Jul-26 13:29N 26°07' W 080°06'0 0.0
2014-Jul-26 12:32N 26°07' W 080°06'0 0.0
2014-Jul-26 11:32N 26°07' W 080°06'0 0.0
2014-Jul-26 10:33N 26°07' W 080°06'0 0.0
2014-Jul-26 09:29N 26°07' W 080°06'0 0.0
2014-Jul-26 08:32N 26°07' W 080°06'0 0.0
2014-Jul-26 07:32N 26°07' W 080°06'0 0.0
2014-Jul-26 06:32N 26°07' W 080°06'0 0.0
2014-Jul-26 05:20N 26°07' W 080°06'0 0.0
2014-Jul-26 04:26N 26°07' W 080°06'0 0.0
2014-Jul-26 03:26N 26°07' W 080°06'0 0.0
2014-Jul-26 02:26N 26°07' W 080°06'0 0.0
2014-Jul-26 01:29N 26°07' W 080°06'0 0.0
2014-Jul-26 00:29N 26°07' W 080°06'0 0.0
2014-Jul-25 23:29N 26°07' W 080°06'0 0.0
2014-Jul-25 22:32N 26°07' W 080°06'0 0.0
2014-Jul-25 21:32N 26°07' W 080°06'0 0.0
2014-Jul-25 20:32N 26°07' W 080°06'0 0.0
2014-Jul-25 19:32N 26°07' W 080°06'0 0.0
2014-Jul-25 18:32N 26°07' W 080°06'0 0.0
2014-Jul-25 17:32N 26°07' W 080°06'0 0.0
2014-Jul-25 16:32N 26°07' W 080°06'0 0.0
2014-Jul-25 15:23N 26°07' W 080°06'0 0.0
2014-Jul-25 14:26N 26°07' W 080°06'0 0.0
2014-Jul-25 13:26N 26°07' W 080°06'0 0.0
2014-Jul-25 12:29N 26°07' W 080°06'0 0.0
2014-Jul-25 11:29N 26°07' W 080°06'0 0.0
2014-Jul-25 10:29N 26°07' W 080°06'0 0.0
2014-Jul-25 09:29N 26°07' W 080°06'0 0.0
2014-Jul-25 08:32N 26°07' W 080°06'0 0.0
2014-Jul-25 07:32N 26°07' W 080°06'0 0.0
2014-Jul-25 06:32N 26°07' W 080°06'0 0.0
2014-Jul-25 05:32N 26°07' W 080°06'0 0.0
2014-Jul-25 04:32N 26°07' W 080°06'0 0.0
2014-Jul-25 03:32N 26°07' W 080°06'0 0.0
2014-Jul-25 02:20N 26°07' W 080°06'0 0.0
2014-Jul-25 01:23N 26°07' W 080°06'0 0.0
2014-Jul-25 00:26N 26°07' W 080°06'0 0.0
2014-Jul-24 23:26N 26°07' W 080°06'0 0.0
2014-Jul-24 22:29N 26°07' W 080°06'0 0.0
2014-Jul-24 21:29N 26°07' W 080°06'0 0.0
2014-Jul-24 20:29N 26°07' W 080°06'0 0.0
2014-Jul-24 19:32N 26°07' W 080°06'0 0.0
2014-Jul-24 18:32N 26°07' W 080°06'0 0.0
2014-Jul-24 17:32N 26°07' W 080°06'0 0.0
2014-Jul-24 16:32N 26°07' W 080°06'0 0.0
2014-Jul-24 15:32N 26°07' W 080°06'0 0.0
2014-Jul-24 14:32N 26°07' W 080°06'0 0.0
2014-Jul-24 13:32N 26°07' W 080°06'0 0.0
2014-Jul-24 12:23N 26°07' W 080°06'0 0.0
2014-Jul-24 11:23N 26°07' W 080°06'0 0.0
2014-Jul-24 10:23N 26°07' W 080°06'0 0.0
2014-Jul-24 09:26N 26°07' W 080°06'0 0.0
2014-Jul-24 08:29N 26°07' W 080°06'0 0.0
2014-Jul-24 07:29N 26°07' W 080°06'0 0.0
2014-Jul-24 06:29N 26°07' W 080°06'0 0.0
2014-Jul-24 05:29N 26°07' W 080°06'0 0.0
2014-Jul-24 04:29N 26°07' W 080°06'0 0.0
2014-Jul-24 03:29N 26°07' W 080°06'0 0.0
2014-Jul-24 02:29N 26°07' W 080°06'0 0.0
2014-Jul-24 01:17N 26°07' W 080°06'0 0.0
2014-Jul-24 00:23N 26°07' W 080°06'0 0.0
2014-Jul-23 23:23N 26°07' W 080°06'0 0.0
2014-Jul-23 22:23N 26°07' W 080°06'0 0.0
2014-Jul-23 21:23N 26°07' W 080°06'0 0.0
2014-Jul-23 20:26N 26°07' W 080°06'0 0.0
2014-Jul-23 19:26N 26°07' W 080°06'0 0.0
2014-Jul-23 18:29N 26°07' W 080°06'0 0.0
2014-Jul-23 17:29N 26°07' W 080°06'1 1.1
2014-Jul-23 16:33N 26°06' W 080°07'1 0.5
2014-Jul-23 15:33N 26°06' W 080°07'1 1.3
2014-Jul-23 14:33N 26°07' W 080°06'0 0.0
2014-Jul-23 13:24N 26°07' W 080°06'0 0.0
2014-Jul-23 12:29N 26°07' W 080°06'135146.4
2014-Jul-23 11:33N 27°27' W 078°04'13565.2
2014-Jul-23 09:29N 26°07' W 080°06'0 0.0
2014-Jul-23 08:32N 26°07' W 080°06'0 0.0
2014-Jul-23 07:32N 26°07' W 080°06'0 0.0
2014-Jul-23 06:32N 26°07' W 080°06'0 0.0
2014-Jul-23 05:32N 26°07' W 080°06'0 0.0
2014-Jul-23 04:32N 26°07' W 080°06'0 0.0
2014-Jul-23 03:23N 26°07' W 080°06'0 0.0
2014-Jul-23 02:20N 26°07' W 080°06'  

Dump ship's entire track history